createdAt,value
2019-03-29T00:01:25.237Z,7.83
2019-03-29T00:03:53.697Z,8.33
2019-03-29T00:06:22.135Z,11.78
2019-03-29T00:08:50.573Z,9.03
2019-03-29T00:11:19.297Z,12.33
2019-03-29T00:13:47.735Z,9.68
2019-03-29T00:16:16.186Z,9.50
2019-03-29T00:18:44.641Z,8.58
2019-03-29T00:21:13.334Z,9.48
2019-03-29T00:23:42.030Z,9.70
2019-03-29T00:26:10.461Z,11.00
2019-03-29T00:28:38.932Z,11.35
2019-03-29T00:31:07.636Z,11.63
2019-03-29T00:33:36.142Z,9.88
2019-03-29T00:36:05.072Z,10.55
2019-03-29T00:38:33.520Z,9.98
2019-03-29T00:41:02.242Z,12.15
2019-03-29T00:43:30.669Z,11.73
2019-03-29T00:45:59.448Z,11.57
2019-03-29T00:48:27.885Z,11.90
2019-03-29T00:50:56.326Z,13.30
2019-03-29T00:53:24.761Z,11.83
2019-03-29T00:55:57.210Z,12.60
2019-03-29T00:58:25.645Z,13.50
2019-03-29T01:00:54.078Z,13.40
2019-03-29T01:03:22.528Z,15.15
2019-03-29T01:05:51.216Z,11.93
2019-03-29T01:08:19.912Z,12.23
2019-03-29T01:10:48.888Z,13.48
2019-03-29T01:13:17.710Z,13.03
2019-03-29T01:15:46.140Z,13.98
2019-03-29T01:18:14.610Z,15.58
2019-03-29T01:20:43.045Z,14.73
2019-03-29T01:23:11.804Z,17.17
2019-03-29T01:25:40.269Z,15.10
2019-03-29T01:28:09.104Z,17.12
2019-03-29T01:30:37.797Z,16.67
2019-03-29T01:33:06.241Z,17.27
2019-03-29T01:35:35.388Z,18.55
2019-03-29T01:38:04.648Z,19.60
2019-03-29T01:40:35.071Z,18.40
2019-03-29T01:43:03.356Z,17.42
2019-03-29T01:45:31.799Z,18.10
2019-03-29T01:48:00.489Z,20.92
2019-03-29T01:50:28.942Z,19.23
2019-03-29T01:52:57.628Z,19.65
2019-03-29T01:55:26.352Z,18.42
2019-03-29T01:57:54.789Z,21.93
2019-03-29T02:00:33.767Z,18.80
2019-03-29T02:03:02.276Z,19.17
2019-03-29T02:05:31.042Z,21.33
2019-03-29T02:07:59.530Z,19.32
2019-03-29T02:10:30.937Z,19.52
2019-03-29T02:12:59.866Z,22.73
2019-03-29T02:15:40.436Z,20.82
2019-03-29T02:18:08.872Z,21.25
2019-03-29T02:20:37.320Z,20.72
2019-03-29T02:23:06.018Z,23.25
2019-03-29T02:25:34.473Z,21.37
2019-03-29T02:28:03.230Z,22.27
2019-03-29T02:30:32.247Z,21.75
2019-03-29T02:33:01.420Z,21.93
2019-03-29T02:35:29.886Z,21.48
2019-03-29T02:38:00.060Z,22.62
2019-03-29T02:40:28.493Z,21.62
2019-03-29T02:42:56.952Z,24.50
2019-03-29T02:45:25.394Z,21.68
2019-03-29T02:47:54.189Z,24.60
2019-03-29T02:50:22.626Z,23.73
2019-03-29T02:52:51.087Z,24.63
2019-03-29T02:55:19.530Z,23.62
2019-03-29T02:57:48.006Z,25.15
2019-03-29T03:00:17.633Z,24.05
2019-03-29T03:02:46.077Z,23.18
2019-03-29T03:05:14.590Z,21.85
2019-03-29T03:07:43.062Z,22.58
2019-03-29T03:10:14.332Z,22.42
2019-03-29T03:12:42.824Z,25.88
2019-03-29T03:15:11.979Z,24.70
2019-03-29T03:17:40.915Z,22.65
2019-03-29T03:20:15.056Z,26.02
2019-03-29T03:23:07.014Z,23.85
2019-03-29T03:25:35.471Z,24.57
2019-03-29T03:28:03.978Z,25.97
2019-03-29T03:30:32.707Z,26.00
2019-03-29T03:33:01.145Z,24.90
2019-03-29T03:35:29.592Z,24.65
2019-03-29T03:37:58.284Z,25.00
2019-03-29T03:40:26.997Z,24.35
2019-03-29T03:42:55.434Z,24.23
2019-03-29T03:45:23.901Z,25.60
2019-03-29T03:47:52.593Z,25.97
2019-03-29T03:50:36.408Z,26.65
2019-03-29T03:53:05.226Z,23.07
2019-03-29T03:55:35.665Z,25.55
2019-03-29T03:58:11.486Z,22.58
2019-03-29T04:00:54.006Z,26.65
2019-03-29T04:03:23.076Z,24.15
2019-03-29T04:05:51.577Z,25.60
2019-03-29T04:08:20.109Z,26.70
2019-03-29T04:10:48.551Z,30.95
2019-03-29T04:13:17.145Z,26.35
2019-03-29T04:15:45.651Z,26.95
2019-03-29T04:18:16.116Z,27.13
2019-03-29T04:20:44.812Z,27.32
2019-03-29T04:23:13.384Z,26.68
2019-03-29T04:25:41.876Z,26.87
2019-03-29T04:28:10.329Z,26.25
2019-03-29T04:30:39.036Z,31.00
2019-03-29T04:33:11.105Z,27.48
2019-03-29T04:35:37.645Z,28.30
2019-03-29T04:38:06.245Z,27.85
2019-03-29T04:40:34.908Z,29.90
2019-03-29T04:43:06.376Z,30.30
2019-03-29T04:45:34.826Z,32.85
2019-03-29T04:48:09.525Z,34.00
2019-03-29T04:50:56.009Z,28.75
2019-03-29T04:53:24.710Z,30.08
2019-03-29T04:55:53.165Z,32.85
2019-03-29T04:58:21.873Z,30.10
2019-03-29T05:00:50.577Z,32.65
2019-03-29T05:03:19.017Z,32.28
2019-03-29T05:05:47.474Z,32.40
2019-03-29T05:08:15.907Z,33.23
2019-03-29T05:10:44.356Z,33.63
2019-03-29T05:13:12.792Z,33.85
2019-03-29T05:15:41.246Z,32.17
2019-03-29T05:18:23.553Z,32.13
2019-03-29T05:20:52.298Z,35.23
2019-03-29T05:23:20.997Z,33.60
2019-03-29T05:25:49.462Z,31.12
2019-03-29T05:28:17.896Z,34.20
2019-03-29T05:30:46.361Z,35.05
2019-03-29T05:33:15.065Z,32.63
2019-03-29T05:35:43.496Z,30.52
2019-03-29T05:38:11.955Z,34.08
2019-03-29T05:40:40.398Z,33.67
2019-03-29T05:43:09.101Z,34.13
2019-03-29T05:45:37.922Z,34.75
2019-03-29T05:48:06.383Z,32.85
2019-03-29T05:50:36.843Z,33.67
2019-03-29T05:53:05.260Z,33.92
2019-03-29T05:55:35.119Z,31.45
2019-03-29T05:58:03.845Z,31.97
2019-03-29T06:00:32.529Z,33.23
2019-03-29T06:03:00.986Z,30.80
2019-03-29T06:05:29.420Z,32.38
2019-03-29T06:07:57.875Z,31.65
2019-03-29T06:10:26.316Z,32.13
2019-03-29T06:13:10.044Z,32.80
2019-03-29T06:15:38.480Z,30.97
2019-03-29T06:18:06.910Z,31.95
2019-03-29T06:20:35.609Z,32.25
2019-03-29T06:23:04.126Z,30.82
2019-03-29T06:25:32.838Z,29.02
2019-03-29T06:28:02.538Z,37.15
2019-03-29T06:30:31.635Z,33.48
2019-03-29T06:33:00.077Z,30.35
2019-03-29T06:35:31.605Z,32.25
2019-03-29T06:38:00.889Z,30.35
2019-03-29T06:40:29.736Z,32.00
2019-03-29T06:42:59.497Z,31.37
2019-03-29T06:45:48.045Z,30.60
2019-03-29T06:50:41.345Z,32.55
2019-03-29T06:53:09.849Z,31.27
2019-03-29T06:55:38.286Z,32.03
2019-03-29T06:58:06.741Z,34.18
2019-03-29T07:00:35.243Z,32.17
2019-03-29T07:03:03.951Z,33.00
2019-03-29T07:05:32.403Z,29.55
2019-03-29T07:08:01.149Z,29.42
2019-03-29T07:10:29.606Z,27.73
2019-03-29T07:12:58.463Z,30.75
2019-03-29T07:15:28.644Z,31.62
2019-03-29T07:17:57.606Z,29.60
2019-03-29T07:20:26.042Z,30.43
2019-03-29T07:23:09.580Z,28.87
2019-03-29T07:25:38.101Z,29.30
2019-03-29T07:28:06.533Z,34.27
2019-03-29T07:30:35.256Z,29.52
2019-03-29T07:33:03.686Z,31.93
2019-03-29T07:35:32.143Z,28.98
2019-03-29T07:38:00.573Z,29.80
2019-03-29T07:40:29.302Z,30.68
2019-03-29T07:42:57.748Z,30.82
2019-03-29T07:45:26.204Z,31.80
2019-03-29T07:47:54.648Z,27.70
2019-03-29T07:50:23.371Z,28.07
2019-03-29T07:52:51.812Z,31.07
2019-03-29T07:55:20.353Z,30.75
2019-03-29T07:57:48.797Z,32.28
2019-03-29T08:00:20.284Z,29.18
2019-03-29T08:02:47.750Z,28.85
2019-03-29T08:05:17.954Z,27.62
2019-03-29T08:07:46.675Z,28.47
2019-03-29T08:10:25.742Z,27.37
2019-03-29T08:12:45.472Z,29.12
2019-03-29T08:15:14.580Z,31.37
2019-03-29T08:17:43.040Z,30.20
2019-03-29T08:20:38.182Z,27.35
2019-03-29T08:22:42.101Z,30.90
2019-03-29T08:25:10.551Z,28.05
2019-03-29T08:27:45.073Z,28.05
2019-03-29T08:30:13.688Z,27.85
2019-03-29T08:32:42.125Z,30.02
2019-03-29T08:35:10.586Z,28.23
2019-03-29T08:37:39.022Z,29.00
2019-03-29T08:40:07.789Z,26.48
2019-03-29T08:42:36.282Z,31.70
2019-03-29T08:45:06.433Z,26.37
2019-03-29T08:47:35.276Z,23.90
2019-03-29T08:50:05.720Z,25.68
2019-03-29T08:52:34.499Z,22.82
2019-03-29T08:55:04.944Z,22.10
2019-03-29T08:57:33.665Z,19.60
2019-03-29T09:00:02.354Z,20.37
2019-03-29T09:02:30.835Z,19.10
2019-03-29T09:04:59.604Z,21.65
2019-03-29T09:07:43.542Z,19.70
2019-03-29T09:09:59.941Z,19.85
2019-03-29T09:12:28.405Z,20.35
2019-03-29T09:14:56.856Z,19.52
2019-03-29T09:17:25.336Z,20.15
2019-03-29T09:19:53.783Z,20.08
2019-03-29T09:22:22.494Z,19.42
2019-03-29T09:24:50.958Z,16.70
2019-03-29T09:27:19.814Z,16.32
2019-03-29T09:29:48.350Z,16.67
2019-03-29T09:32:16.788Z,15.45
2019-03-29T09:34:45.249Z,18.35
2019-03-29T09:37:14.030Z,16.30
2019-03-29T09:39:42.496Z,13.25
2019-03-29T09:42:10.939Z,14.95
2019-03-29T09:44:39.414Z,14.78
2019-03-29T09:47:07.844Z,15.63
2019-03-29T09:49:36.291Z,15.98
2019-03-29T09:52:04.752Z,16.87
2019-03-29T09:54:33.472Z,15.10
2019-03-29T09:57:02.014Z,17.48
2019-03-29T09:59:30.455Z,15.88
2019-03-29T10:01:59.192Z,12.82
2019-03-29T10:04:27.726Z,15.65
2019-03-29T10:06:56.227Z,13.38
2019-03-29T10:09:24.997Z,17.82
2019-03-29T10:11:53.458Z,16.32
2019-03-29T10:14:22.153Z,16.52
2019-03-29T10:16:50.622Z,16.02
2019-03-29T10:19:19.058Z,14.98
2019-03-29T10:21:47.526Z,15.88
2019-03-29T10:24:15.970Z,14.13
2019-03-29T10:26:44.420Z,14.10
2019-03-29T10:29:12.957Z,13.83
2019-03-29T10:31:41.658Z,15.32
2019-03-29T10:34:10.364Z,14.28
2019-03-29T10:36:39.105Z,14.30
2019-03-29T10:39:14.084Z,15.93
2019-03-29T10:41:42.797Z,17.35
2019-03-29T10:44:11.506Z,15.65
2019-03-29T10:46:39.958Z,17.87
2019-03-29T10:49:08.408Z,13.88
2019-03-29T10:51:38.313Z,13.83
2019-03-29T10:54:07.086Z,13.65
2019-03-29T10:56:35.536Z,15.63
2019-03-29T10:59:04.095Z,14.65
2019-03-29T11:01:32.535Z,15.40
2019-03-29T11:04:01.242Z,16.15
2019-03-29T11:06:30.478Z,14.85
2019-03-29T11:08:58.918Z,15.75
2019-03-29T11:11:27.378Z,14.18
2019-03-29T11:13:56.870Z,18.07
2019-03-29T11:16:25.459Z,16.48
2019-03-29T11:18:53.946Z,14.58
2019-03-29T11:21:22.393Z,14.73
2019-03-29T11:23:50.837Z,16.73
2019-03-29T11:26:19.300Z,15.85
2019-03-29T11:28:47.747Z,14.63
2019-03-29T11:31:17.788Z,15.50
2019-03-29T11:33:46.229Z,14.65
2019-03-29T11:36:14.889Z,16.60
2019-03-29T11:38:43.590Z,13.43
2019-03-29T11:41:12.043Z,14.03
2019-03-29T11:43:40.503Z,14.18
2019-03-29T11:46:08.946Z,15.50
2019-03-29T11:48:37.403Z,14.03
2019-03-29T11:51:18.618Z,14.58
2019-03-29T11:53:36.033Z,15.43
2019-03-29T11:56:04.476Z,12.68
2019-03-29T11:58:33.194Z,14.00
2019-03-29T12:01:01.638Z,13.83
2019-03-29T12:03:34.396Z,12.75
2019-03-29T12:06:02.861Z,14.13
2019-03-29T12:08:31.578Z,14.90
2019-03-29T12:11:00.026Z,20.45
2019-03-29T12:13:40.462Z,14.30
2019-03-29T12:15:58.966Z,15.58
2019-03-29T12:18:27.404Z,13.93
2019-03-29T12:20:56.782Z,12.07
2019-03-29T12:23:25.225Z,14.28
2019-03-29T12:25:53.675Z,13.28
2019-03-29T12:28:22.116Z,13.55
2019-03-29T12:30:50.575Z,15.88
2019-03-29T12:33:19.275Z,13.48
2019-03-29T12:35:47.748Z,14.70
2019-03-29T12:38:16.197Z,15.15
2019-03-29T12:40:45.256Z,14.15
2019-03-29T12:43:13.977Z,13.95
2019-03-29T12:45:42.427Z,13.05
2019-03-29T12:48:11.147Z,16.93
2019-03-29T12:50:39.590Z,14.55
2019-03-29T12:53:08.051Z,15.15
2019-03-29T12:55:36.849Z,12.10
2019-03-29T12:58:05.368Z,14.07
2019-03-29T13:00:33.952Z,13.32
2019-03-29T13:03:02.432Z,13.65
2019-03-29T13:05:30.864Z,13.85
2019-03-29T13:07:59.647Z,12.03
2019-03-29T13:10:28.361Z,13.03
2019-03-29T13:13:00.219Z,13.48
2019-03-29T13:15:29.697Z,14.20
2019-03-29T13:17:58.394Z,12.05
2019-03-29T13:20:26.853Z,12.07
2019-03-29T13:22:55.300Z,12.55
2019-03-29T13:25:24.051Z,14.75
2019-03-29T13:27:55.429Z,12.75
2019-03-29T13:30:22.867Z,13.20
2019-03-29T13:32:51.311Z,12.78
2019-03-29T13:35:19.765Z,12.55
2019-03-29T13:37:48.209Z,12.37
2019-03-29T13:40:25.220Z,12.88
2019-03-29T13:42:53.911Z,11.18
2019-03-29T13:45:22.632Z,12.40
2019-03-29T13:47:51.334Z,13.65
2019-03-29T13:50:19.777Z,11.03
2019-03-29T13:52:48.254Z,11.40
2019-03-29T13:55:17.581Z,13.35
2019-03-29T13:57:46.047Z,10.60
2019-03-29T14:00:14.491Z,10.53
2019-03-29T14:02:42.946Z,11.12
2019-03-29T14:05:11.521Z,11.38
2019-03-29T14:07:40.251Z,11.38
2019-03-29T14:10:10.129Z,10.43
2019-03-29T14:12:39.814Z,8.85
2019-03-29T14:15:11.324Z,10.95
2019-03-29T14:17:39.768Z,9.93
2019-03-29T14:20:08.666Z,11.65
2019-03-29T14:22:37.100Z,9.83
2019-03-29T14:25:07.801Z,8.60
2019-03-29T14:27:36.490Z,10.80
2019-03-29T14:30:07.491Z,7.62
2019-03-29T14:32:35.918Z,7.90
2019-03-29T14:35:07.286Z,8.75
2019-03-29T14:37:35.728Z,9.55
2019-03-29T14:40:06.797Z,9.23
2019-03-29T14:42:35.302Z,10.50
2019-03-29T14:45:06.554Z,11.18
2019-03-29T14:47:41.359Z,9.93
2019-03-29T14:50:09.408Z,8.33
2019-03-29T14:52:37.934Z,10.10
2019-03-29T14:55:06.914Z,9.78
2019-03-29T14:57:35.636Z,11.35
2019-03-29T15:00:06.837Z,9.38
2019-03-29T15:02:36.865Z,9.68
2019-03-29T15:05:07.153Z,11.18
2019-03-29T15:07:36.499Z,10.60
2019-03-29T15:10:06.786Z,8.85
2019-03-29T15:12:35.253Z,9.00
2019-03-29T15:15:07.100Z,8.73
2019-03-29T15:17:35.808Z,11.97
2019-03-29T15:20:06.020Z,10.45
2019-03-29T15:22:34.716Z,10.70
2019-03-29T15:25:03.236Z,8.63
2019-03-29T15:27:31.676Z,9.80
2019-03-29T15:30:00.499Z,10.20
2019-03-29T15:32:29.047Z,10.78
2019-03-29T15:35:01.101Z,12.18
2019-03-29T15:37:29.543Z,9.55
2019-03-29T15:39:58.469Z,14.33
2019-03-29T15:42:27.170Z,9.33
2019-03-29T15:44:55.877Z,12.40
2019-03-29T15:47:24.572Z,33.28
2019-03-29T15:49:56.242Z,10.13
2019-03-29T15:52:23.474Z,9.33
2019-03-29T15:54:52.925Z,9.68
2019-03-29T15:57:23.618Z,11.20
2019-03-29T15:59:52.311Z,9.13
2019-03-29T16:02:20.773Z,10.28
2019-03-29T16:04:49.211Z,10.85
2019-03-29T16:07:17.921Z,10.63
2019-03-29T16:09:46.348Z,10.78
2019-03-29T16:12:15.057Z,9.03
2019-03-29T16:14:43.500Z,9.90
2019-03-29T16:17:11.969Z,10.28
2019-03-29T16:19:40.668Z,11.20
2019-03-29T16:22:09.125Z,12.28
2019-03-29T16:24:37.833Z,10.50
2019-03-29T16:27:06.302Z,9.80
2019-03-29T16:29:34.736Z,12.45
2019-03-29T16:32:03.176Z,10.85
2019-03-29T16:34:31.630Z,10.30
2019-03-29T16:37:00.078Z,9.53
2019-03-29T16:39:28.790Z,13.70
2019-03-29T16:41:57.482Z,10.03
2019-03-29T16:44:25.934Z,8.38
2019-03-29T16:46:54.394Z,10.82
2019-03-29T16:49:22.841Z,9.80
2019-03-29T16:51:51.297Z,9.35
2019-03-29T16:54:19.801Z,9.75
2019-03-29T16:56:48.493Z,10.35
2019-03-29T16:59:16.961Z,12.45
2019-03-29T17:01:45.402Z,13.38
2019-03-29T17:04:13.848Z,12.45
2019-03-29T17:06:45.041Z,11.35
2019-03-29T17:09:13.492Z,12.58
2019-03-29T17:11:41.973Z,13.93
2019-03-29T17:14:10.407Z,10.58
2019-03-29T17:16:39.169Z,12.70
2019-03-29T17:19:07.608Z,13.83
2019-03-29T17:21:36.069Z,10.72
2019-03-29T17:24:04.585Z,14.85
2019-03-29T17:26:33.297Z,20.32
2019-03-29T17:29:03.038Z,14.15
2019-03-29T17:31:32.196Z,14.05
2019-03-29T17:34:00.887Z,12.58
2019-03-29T17:36:29.595Z,12.28
2019-03-29T17:38:58.314Z,17.27
2019-03-29T17:41:29.930Z,13.58
2019-03-29T17:43:58.651Z,14.60
2019-03-29T17:46:27.093Z,14.03
2019-03-29T17:48:55.810Z,12.93
2019-03-29T17:51:24.500Z,13.80
2019-03-29T17:53:52.965Z,16.42
2019-03-29T17:56:24.489Z,13.60
2019-03-29T17:58:59.081Z,13.30
2019-03-29T18:01:27.873Z,12.00
2019-03-29T18:03:56.575Z,14.87
2019-03-29T18:06:25.034Z,14.00
2019-03-29T18:08:53.474Z,12.50
2019-03-29T18:11:21.945Z,15.88
2019-03-29T18:13:50.394Z,13.15
2019-03-29T18:16:29.858Z,14.07
2019-03-29T18:18:49.017Z,13.18
2019-03-29T18:21:17.476Z,13.72
2019-03-29T18:23:45.917Z,13.05
2019-03-29T18:26:14.638Z,14.85
2019-03-29T18:28:43.084Z,15.63
2019-03-29T18:31:11.527Z,15.83
2019-03-29T18:33:40.156Z,16.12
2019-03-29T18:36:09.042Z,14.80
2019-03-29T18:38:38.833Z,15.60
2019-03-29T18:41:07.525Z,19.67
2019-03-29T18:43:36.015Z,15.20
2019-03-29T18:46:04.620Z,18.02
2019-03-29T18:48:33.086Z,16.82
2019-03-29T18:51:01.526Z,18.48
2019-03-29T18:53:30.004Z,19.87
2019-03-29T18:55:58.720Z,18.35
2019-03-29T18:58:27.160Z,16.02
2019-03-29T19:00:55.624Z,15.75
2019-03-29T19:03:24.139Z,17.02
2019-03-29T19:05:52.593Z,18.27
2019-03-29T19:08:21.298Z,19.92
2019-03-29T19:10:49.830Z,19.70
2019-03-29T19:13:18.534Z,20.50
2019-03-29T19:15:47.907Z,18.98
2019-03-29T19:18:16.403Z,19.30
2019-03-29T19:20:45.140Z,19.42
2019-03-29T19:23:13.578Z,18.05
2019-03-29T19:25:42.275Z,19.52
2019-03-29T19:28:10.733Z,20.57
2019-03-29T19:30:39.231Z,19.30
2019-03-29T19:33:07.737Z,19.37
2019-03-29T19:35:36.196Z,18.62
2019-03-29T19:38:04.796Z,18.98
2019-03-29T19:40:33.238Z,18.77
2019-03-29T19:43:04.940Z,22.02
2019-03-29T19:45:34.522Z,22.58
2019-03-29T19:48:03.141Z,21.80
2019-03-29T19:50:31.584Z,20.50
2019-03-29T19:53:00.062Z,20.62
2019-03-29T19:55:28.617Z,20.08
2019-03-29T19:57:57.458Z,20.57
2019-03-29T20:00:38.033Z,20.45
2019-03-29T20:03:06.450Z,19.25
2019-03-29T20:05:35.241Z,18.92
2019-03-29T20:08:03.952Z,19.15
2019-03-29T20:10:32.667Z,19.05
2019-03-29T20:13:01.281Z,19.48
2019-03-29T20:15:29.780Z,21.80
2019-03-29T20:17:58.240Z,23.67
2019-03-29T20:20:27.053Z,21.20
2019-03-29T20:22:57.494Z,21.25
2019-03-29T20:25:26.093Z,23.52
2019-03-29T20:27:58.536Z,22.30
2019-03-29T20:30:27.867Z,23.42
2019-03-29T20:32:56.386Z,24.63
2019-03-29T20:35:24.824Z,22.35
2019-03-29T20:37:53.293Z,22.22
2019-03-29T20:40:22.068Z,22.42
2019-03-29T20:42:50.829Z,23.30
2019-03-29T20:45:19.386Z,21.42
2019-03-29T20:47:51.612Z,23.12
2019-03-29T20:50:17.990Z,21.07
2019-03-29T20:53:04.634Z,22.48
2019-03-29T20:55:33.125Z,21.55
2019-03-29T20:58:01.628Z,21.33
2019-03-29T21:00:30.092Z,25.62
2019-03-29T21:02:58.538Z,23.02
2019-03-29T21:05:27.229Z,20.70
2019-03-29T21:07:55.948Z,24.63
2019-03-29T21:10:24.633Z,23.22
2019-03-29T21:12:53.114Z,22.20
2019-03-29T21:15:21.870Z,22.32
2019-03-29T21:17:56.760Z,23.87
2019-03-29T21:20:20.501Z,21.90
2019-03-29T21:22:58.204Z,20.65
2019-03-29T21:25:26.905Z,23.42
2019-03-29T21:27:55.365Z,24.67
2019-03-29T21:30:23.867Z,22.32
2019-03-29T21:32:52.308Z,23.77
2019-03-29T21:35:20.767Z,24.27
2019-03-29T21:37:49.200Z,23.52
2019-03-29T21:40:17.647Z,25.80
2019-03-29T21:42:46.091Z,26.02
2019-03-29T21:45:28.083Z,26.48
2019-03-29T21:48:01.461Z,24.85
2019-03-29T21:50:18.280Z,23.95
2019-03-29T21:52:46.714Z,24.35
2019-03-29T21:55:15.164Z,28.47
2019-03-29T21:57:43.643Z,21.93
2019-03-29T22:00:18.673Z,21.93
2019-03-29T22:02:47.385Z,24.40
2019-03-29T22:05:16.321Z,20.10
2019-03-29T22:07:44.758Z,22.82
2019-03-29T22:10:13.641Z,21.70
2019-03-29T22:12:43.182Z,33.65
2019-03-29T22:15:12.373Z,33.05
2019-03-29T22:17:40.829Z,34.03
2019-03-29T22:20:10.201Z,34.70
2019-03-29T22:22:38.914Z,27.15
2019-03-29T22:25:08.960Z,24.57
2019-03-29T22:27:37.579Z,23.70
2019-03-29T22:30:10.373Z,26.77
2019-03-29T22:32:38.884Z,24.92
2019-03-29T22:35:09.326Z,22.90
2019-03-29T22:37:38.102Z,23.07
2019-03-29T22:40:10.806Z,24.20
2019-03-29T22:42:39.273Z,19.05
2019-03-29T22:45:08.504Z,20.97
2019-03-29T22:47:36.933Z,22.98
2019-03-29T22:50:08.810Z,24.05
2019-03-29T22:52:37.489Z,23.32
2019-03-29T22:55:08.327Z,21.93
2019-03-29T22:57:36.761Z,22.98
2019-03-29T23:00:11.477Z,24.00
2019-03-29T23:02:39.913Z,22.95
2019-03-29T23:05:08.774Z,24.45
2019-03-29T23:07:37.221Z,26.97
2019-03-29T23:10:07.228Z,23.32
2019-03-29T23:12:35.668Z,24.52
2019-03-29T23:15:05.855Z,25.77
2019-03-29T23:17:34.336Z,22.48
2019-03-29T23:20:02.767Z,25.12
2019-03-29T23:22:31.477Z,25.10
2019-03-29T23:24:59.913Z,24.95
2019-03-29T23:27:28.373Z,23.40
2019-03-29T23:29:56.813Z,23.15
2019-03-29T23:32:25.267Z,21.73
2019-03-29T23:34:54.002Z,21.20
2019-03-29T23:37:22.452Z,20.82
2019-03-29T23:39:50.890Z,26.23
2019-03-29T23:42:19.609Z,24.45
2019-03-29T23:44:48.060Z,20.82
2019-03-29T23:47:16.500Z,20.72
2019-03-29T23:49:44.968Z,23.20
2019-03-29T23:52:13.656Z,24.30
2019-03-29T23:54:42.380Z,22.70
2019-03-29T23:57:10.821Z,23.15
2019-03-29T23:59:39.275Z,25.88
